sensor_id;sensor_type;location;lat;lon;timestamp;pressure;altitude;pressure_sealevel;temperature;humidity
43711;BME280;29309;42.682;23.372;2023-04-27T00:01:32;94878.91;;;8.87;51.43
43711;BME280;29309;42.682;23.372;2023-04-27T00:03:57;94887.84;;;8.86;51.11
43711;BME280;29309;42.682;23.372;2023-04-27T00:06:23;94887.72;;;8.84;51.06
43711;BME280;29309;42.682;23.372;2023-04-27T00:08:50;94890.50;;;8.84;51.37
43711;BME280;29309;42.682;23.372;2023-04-27T00:11:16;94889.56;;;8.79;51.48
43711;BME280;29309;42.682;23.372;2023-04-27T00:13:41;94889.47;;;8.77;51.35
43711;BME280;29309;42.682;23.372;2023-04-27T00:16:06;94891.81;;;8.69;51.28
43711;BME280;29309;42.682;23.372;2023-04-27T00:18:32;94896.03;;;8.70;51.55
43711;BME280;29309;42.682;23.372;2023-04-27T00:20:58;94903.50;;;8.68;51.13
43711;BME280;29309;42.682;23.372;2023-04-27T00:23:23;94892.00;;;8.60;51.37
43711;BME280;29309;42.682;23.372;2023-04-27T00:25:49;94897.44;;;8.58;51.39
43711;BME280;29309;42.682;23.372;2023-04-27T00:28:14;94897.22;;;8.54;51.36
43711;BME280;29309;42.682;23.372;2023-04-27T00:30:40;94902.06;;;8.53;51.79
43711;BME280;29309;42.682;23.372;2023-04-27T00:33:05;94895.78;;;8.53;52.32
43711;BME280;29309;42.682;23.372;2023-04-27T00:35:31;94901.00;;;8.47;51.88
43711;BME280;29309;42.682;23.372;2023-04-27T00:37:57;94898.72;;;8.43;51.86
43711;BME280;29309;42.682;23.372;2023-04-27T00:40:23;94900.09;;;8.42;52.18
43711;BME280;29309;42.682;23.372;2023-04-27T00:42:48;94906.94;;;8.41;52.13
43711;BME280;29309;42.682;23.372;2023-04-27T00:45:14;94903.34;;;8.38;52.33
43711;BME280;29309;42.682;23.372;2023-04-27T00:47:40;94903.22;;;8.36;52.01
43711;BME280;29309;42.682;23.372;2023-04-27T00:50:06;94905.91;;;8.34;51.75
43711;BME280;29309;42.682;23.372;2023-04-27T00:52:35;94901.22;;;8.25;51.97
43711;BME280;29309;42.682;23.372;2023-04-27T00:55:02;94901.00;;;8.21;52.16
43711;BME280;29309;42.682;23.372;2023-04-27T00:57:32;94896.69;;;8.18;52.27
43711;BME280;29309;42.682;23.372;2023-04-27T01:00:01;94903.97;;;8.12;52.48
43711;BME280;29309;42.682;23.372;2023-04-27T01:02:28;94909.50;;;8.12;52.72
43711;BME280;29309;42.682;23.372;2023-04-27T01:04:54;94910.13;;;8.10;52.87
43711;BME280;29309;42.682;23.372;2023-04-27T01:07:24;94913.84;;;8.03;52.59
43711;BME280;29309;42.682;23.372;2023-04-27T01:09:49;94909.53;;;8.00;52.88
43711;BME280;29309;42.682;23.372;2023-04-27T01:12:15;94923.88;;;7.97;52.80
43711;BME280;29309;42.682;23.372;2023-04-27T01:14:40;94923.75;;;7.95;53.63
43711;BME280;29309;42.682;23.372;2023-04-27T01:17:06;94914.66;;;7.92;52.78
43711;BME280;29309;42.682;23.372;2023-04-27T01:19:32;94910.81;;;7.85;53.66
43711;BME280;29309;42.682;23.372;2023-04-27T01:21:57;94914.06;;;7.82;53.30
43711;BME280;29309;42.682;23.372;2023-04-27T01:24:23;94919.28;;;7.76;53.62
43711;BME280;29309;42.682;23.372;2023-04-27T01:26:48;94919.28;;;7.76;53.52
43711;BME280;29309;42.682;23.372;2023-04-27T01:29:16;94921.81;;;7.72;53.92
43711;BME280;29309;42.682;23.372;2023-04-27T01:31:41;94919.66;;;7.70;53.88
43711;BME280;29309;42.682;23.372;2023-04-27T01:34:07;94926.28;;;7.65;54.07
43711;BME280;29309;42.682;23.372;2023-04-27T01:36:32;94921.97;;;7.62;53.79
43711;BME280;29309;42.682;23.372;2023-04-27T01:38:58;94936.38;;;7.61;53.87
43711;BME280;29309;42.682;23.372;2023-04-27T01:41:23;94932.66;;;7.56;54.52
43711;BME280;29309;42.682;23.372;2023-04-27T01:43:48;94937.59;;;7.58;54.04
43711;BME280;29309;42.682;23.372;2023-04-27T01:46:14;94940.84;;;7.54;54.74
43711;BME280;29309;42.682;23.372;2023-04-27T01:48:40;94937.97;;;7.52;54.22
43711;BME280;29309;42.682;23.372;2023-04-27T01:51:06;94933.53;;;7.47;54.26
43711;BME280;29309;42.682;23.372;2023-04-27T01:53:31;94932.59;;;7.42;54.70
43711;BME280;29309;42.682;23.372;2023-04-27T01:55:57;94944.13;;;7.39;54.50
43711;BME280;29309;42.682;23.372;2023-04-27T01:58:24;94938.97;;;7.33;54.33
43711;BME280;29309;42.682;23.372;2023-04-27T02:00:49;94943.88;;;7.35;54.89
43711;BME280;29309;42.682;23.372;2023-04-27T02:03:15;94941.50;;;7.29;54.91
43711;BME280;29309;42.682;23.372;2023-04-27T02:05:40;94937.19;;;7.26;54.46
43711;BME280;29309;42.682;23.372;2023-04-27T02:08:06;94936.72;;;7.18;54.98
43711;BME280;29309;42.682;23.372;2023-04-27T02:10:31;94938.03;;;7.17;54.72
43711;BME280;29309;42.682;23.372;2023-04-27T02:12:57;94938.66;;;7.16;55.35
43711;BME280;29309;42.682;23.372;2023-04-27T02:15:22;94945.34;;;7.13;54.95
43711;BME280;29309;42.682;23.372;2023-04-27T02:17:48;94945.34;;;7.13;55.27
43711;BME280;29309;42.682;23.372;2023-04-27T02:20:13;94941.91;;;7.12;55.16
43711;BME280;29309;42.682;23.372;2023-04-27T02:22:42;94944.53;;;7.10;55.38
43711;BME280;29309;42.682;23.372;2023-04-27T02:25:12;94945.84;;;7.09;55.23
43711;BME280;29309;42.682;23.372;2023-04-27T02:27:38;94939.38;;;7.05;55.18
43711;BME280;29309;42.682;23.372;2023-04-27T02:30:08;94949.56;;;7.02;55.27
43711;BME280;29309;42.682;23.372;2023-04-27T02:32:34;94938.31;;;6.98;55.23
43711;BME280;29309;42.682;23.372;2023-04-27T02:35:00;94949.22;;;6.96;55.16
43711;BME280;29309;42.682;23.372;2023-04-27T02:37:26;94949.13;;;6.94;55.54
43711;BME280;29309;42.682;23.372;2023-04-27T02:39:51;94942.00;;;6.91;55.94
43711;BME280;29309;42.682;23.372;2023-04-27T02:42:17;94943.69;;;6.84;55.50
43711;BME280;29309;42.682;23.372;2023-04-27T02:44:42;94947.06;;;6.83;55.47
43711;BME280;29309;42.682;23.372;2023-04-27T02:47:08;94948.50;;;6.84;55.70
43711;BME280;29309;42.682;23.372;2023-04-27T02:49:34;94949.69;;;6.81;55.43
43711;BME280;29309;42.682;23.372;2023-04-27T02:51:59;94946.09;;;6.78;55.80
43711;BME280;29309;42.682;23.372;2023-04-27T02:54:25;94961.94;;;6.78;55.85
43711;BME280;29309;42.682;23.372;2023-04-27T02:56:50;94948.28;;;6.80;55.26
43711;BME280;29309;42.682;23.372;2023-04-27T02:59:16;94960.72;;;6.81;55.09
43711;BME280;29309;42.682;23.372;2023-04-27T03:01:41;94960.50;;;6.77;55.30
43711;BME280;29309;42.682;23.372;2023-04-27T03:04:06;94963.25;;;6.77;55.52
43711;BME280;29309;42.682;23.372;2023-04-27T03:06:32;94960.50;;;6.77;55.37
43711;BME280;29309;42.682;23.372;2023-04-27T03:08:57;94964.34;;;6.72;54.86
43711;BME280;29309;42.682;23.372;2023-04-27T03:11:23;94971.28;;;6.73;55.16
43711;BME280;29309;42.682;23.372;2023-04-27T03:13:48;94972.63;;;6.72;55.26
43711;BME280;29309;42.682;23.372;2023-04-27T03:16:14;94974.66;;;6.71;55.25
43711;BME280;29309;42.682;23.372;2023-04-27T03:18:39;94968.16;;;6.67;55.55
43711;BME280;29309;42.682;23.372;2023-04-27T03:21:06;94975.84;;;6.68;55.80
43711;BME280;29309;42.682;23.372;2023-04-27T03:23:32;94978.00;;;6.70;55.71
43711;BME280;29309;42.682;23.372;2023-04-27T03:25:57;94982.56;;;6.65;55.75
43711;BME280;29309;42.682;23.372;2023-04-27T03:28:23;94982.56;;;6.65;55.66
43711;BME280;29309;42.682;23.372;2023-04-27T03:30:48;94983.63;;;6.60;55.54
43711;BME280;29309;42.682;23.372;2023-04-27T03:33:14;94984.34;;;6.61;55.59
43711;BME280;29309;42.682;23.372;2023-04-27T03:35:39;94985.66;;;6.60;55.40
43711;BME280;29309;42.682;23.372;2023-04-27T03:38:05;94977.88;;;6.56;55.91
43711;BME280;29309;42.682;23.372;2023-04-27T03:40:30;94992.50;;;6.59;55.88
43711;BME280;29309;42.682;23.372;2023-04-27T03:42:56;94991.06;;;6.58;55.69
43711;BME280;29309;42.682;23.372;2023-04-27T03:45:21;94996.41;;;6.44;56.44
43711;BME280;29309;42.682;23.372;2023-04-27T03:47:47;94996.91;;;6.52;55.90
43711;BME280;29309;42.682;23.372;2023-04-27T03:50:12;94998.13;;;6.49;55.60
43711;BME280;29309;42.682;23.372;2023-04-27T03:52:38;94990.91;;;6.44;55.97
43711;BME280;29309;42.682;23.372;2023-04-27T03:55:04;94994.78;;;6.51;56.27
43711;BME280;29309;42.682;23.372;2023-04-27T03:57:30;95006.75;;;6.55;56.25
43711;BME280;29309;42.682;23.372;2023-04-27T03:59:56;95003.31;;;6.55;56.09
43711;BME280;29309;42.682;23.372;2023-04-27T04:02:21;95008.69;;;6.53;56.18
43711;BME280;29309;42.682;23.372;2023-04-27T04:04:48;95018.16;;;6.50;56.33
43711;BME280;29309;42.682;23.372;2023-04-27T04:07:13;95019.13;;;6.54;56.11
43711;BME280;29309;42.682;23.372;2023-04-27T04:09:43;95020.53;;;6.55;56.49
43711;BME280;29309;42.682;23.372;2023-04-27T04:12:09;95028.13;;;6.55;56.60
43711;BME280;29309;42.682;23.372;2023-04-27T04:14:34;95027.03;;;6.60;56.31
43711;BME280;29309;42.682;23.372;2023-04-27T04:17:00;95027.66;;;6.58;56.43
43711;BME280;29309;42.682;23.372;2023-04-27T04:19:25;95033.53;;;6.64;56.05
43711;BME280;29309;42.682;23.372;2023-04-27T04:21:51;95041.44;;;6.70;56.31
43711;BME280;29309;42.682;23.372;2023-04-27T04:24:21;95034.63;;;6.71;55.70
43711;BME280;29309;42.682;23.372;2023-04-27T04:26:46;95050.94;;;6.78;55.73
43711;BME280;29309;42.682;23.372;2023-04-27T04:29:12;95052.66;;;6.83;55.10
43711;BME280;29309;42.682;23.372;2023-04-27T04:31:38;95050.25;;;6.89;55.27
43711;BME280;29309;42.682;23.372;2023-04-27T04:34:04;95057.31;;;6.92;54.90
43711;BME280;29309;42.682;23.372;2023-04-27T04:36:30;95059.13;;;7.00;54.69
43711;BME280;29309;42.682;23.372;2023-04-27T04:38:59;95061.31;;;7.01;54.32
43711;BME280;29309;42.682;23.372;2023-04-27T04:41:25;95060.22;;;7.06;55.24
43711;BME280;29309;42.682;23.372;2023-04-27T04:43:50;95058.44;;;7.11;54.45
43711;BME280;29309;42.682;23.372;2023-04-27T04:46:16;95067.53;;;7.13;54.06
43711;BME280;29309;42.682;23.372;2023-04-27T04:48:41;95059.16;;;7.11;53.73
43711;BME280;29309;42.682;23.372;2023-04-27T04:51:07;95071.63;;;7.12;53.74
43711;BME280;29309;42.682;23.372;2023-04-27T04:53:32;95067.44;;;7.11;54.13
43711;BME280;29309;42.682;23.372;2023-04-27T04:56:10;95082.44;;;7.20;53.81
43711;BME280;29309;42.682;23.372;2023-04-27T04:58:36;95075.59;;;7.21;52.96
43711;BME280;29309;42.682;23.372;2023-04-27T05:01:01;95081.84;;;7.21;53.23
43711;BME280;29309;42.682;23.372;2023-04-27T05:03:27;95088.19;;;7.24;53.01
43711;BME280;29309;42.682;23.372;2023-04-27T05:05:52;95093.97;;;7.28;53.25
43711;BME280;29309;42.682;23.372;2023-04-27T05:08:18;95095.91;;;7.37;53.59
43711;BME280;29309;42.682;23.372;2023-04-27T05:10:54;95099.84;;;7.46;52.93
43711;BME280;29309;42.682;23.372;2023-04-27T05:13:20;95098.28;;;7.54;52.55
43711;BME280;29309;42.682;23.372;2023-04-27T05:15:46;95105.03;;;7.63;52.28
43711;BME280;29309;42.682;23.372;2023-04-27T05:18:11;95098.06;;;7.62;51.92
43711;BME280;29309;42.682;23.372;2023-04-27T05:20:37;95092.88;;;7.68;52.35
43711;BME280;29309;42.682;23.372;2023-04-27T05:23:03;95096.72;;;7.74;52.03
43711;BME280;29309;42.682;23.372;2023-04-27T05:25:33;95099.13;;;7.80;51.96
43711;BME280;29309;42.682;23.372;2023-04-27T05:27:59;95104.41;;;7.87;52.02
43711;BME280;29309;42.682;23.372;2023-04-27T05:30:25;95111.00;;;7.94;51.66
43711;BME280;29309;42.682;23.372;2023-04-27T05:32:51;95098.72;;;7.97;51.76
43711;BME280;29309;42.682;23.372;2023-04-27T05:35:16;95114.94;;;8.03;51.93
43711;BME280;29309;42.682;23.372;2023-04-27T05:37:42;95097.88;;;8.06;51.69
43711;BME280;29309;42.682;23.372;2023-04-27T05:40:07;95104.69;;;8.17;51.28
43711;BME280;29309;42.682;23.372;2023-04-27T05:42:34;95103.59;;;8.22;50.81
43711;BME280;29309;42.682;23.372;2023-04-27T05:45:00;95107.31;;;8.26;51.71
43711;BME280;29309;42.682;23.372;2023-04-27T05:47:26;95107.06;;;8.34;51.36
43711;BME280;29309;42.682;23.372;2023-04-27T05:49:52;95105.84;;;8.37;51.15
43711;BME280;29309;42.682;23.372;2023-04-27T05:52:18;95108.97;;;8.43;50.69
43711;BME280;29309;42.682;23.372;2023-04-27T05:54:47;95112.81;;;8.50;50.41
43711;BME280;29309;42.682;23.372;2023-04-27T05:57:14;95107.78;;;8.46;50.06
43711;BME280;29309;42.682;23.372;2023-04-27T05:59:40;95109.19;;;8.47;50.42
43711;BME280;29309;42.682;23.372;2023-04-27T06:02:05;95109.19;;;8.47;49.81
43711;BME280;29309;42.682;23.372;2023-04-27T06:04:31;95111.34;;;8.49;50.48
43711;BME280;29309;42.682;23.372;2023-04-27T06:07:00;95114.84;;;8.49;50.15
43711;BME280;29309;42.682;23.372;2023-04-27T06:09:29;95104.84;;;8.56;50.72
43711;BME280;29309;42.682;23.372;2023-04-27T06:11:55;95114.41;;;8.66;50.72
43711;BME280;29309;42.682;23.372;2023-04-27T06:14:22;95106.94;;;8.69;50.98
43711;BME280;29309;42.682;23.372;2023-04-27T06:16:48;95116.78;;;8.72;49.98
43711;BME280;29309;42.682;23.372;2023-04-27T06:19:13;95110.91;;;8.91;49.83
43711;BME280;29309;42.682;23.372;2023-04-27T06:21:39;95115.72;;;9.16;50.04
43711;BME280;29309;42.682;23.372;2023-04-27T06:24:05;95107.34;;;9.41;49.26
43711;BME280;29309;42.682;23.372;2023-04-27T06:26:30;95106.47;;;9.64;48.36
43711;BME280;29309;42.682;23.372;2023-04-27T06:28:56;95111.41;;;9.79;47.27
43711;BME280;29309;42.682;23.372;2023-04-27T06:31:21;95113.66;;;9.82;46.71
43711;BME280;29309;42.682;23.372;2023-04-27T06:33:47;95114.16;;;9.93;47.04
43711;BME280;29309;42.682;23.372;2023-04-27T06:36:12;95111.09;;;10.00;46.33
43711;BME280;29309;42.682;23.372;2023-04-27T06:38:38;95111.22;;;10.16;46.97
43711;BME280;29309;42.682;23.372;2023-04-27T06:41:03;95101.13;;;10.22;47.30
43711;BME280;29309;42.682;23.372;2023-04-27T06:43:29;95111.44;;;10.63;46.51
43711;BME280;29309;42.682;23.372;2023-04-27T06:45:55;95102.72;;;11.00;45.65
43711;BME280;29309;42.682;23.372;2023-04-27T06:48:20;95101.72;;;11.54;44.75
43711;BME280;29309;42.682;23.372;2023-04-27T06:50:46;95108.19;;;11.90;43.71
43711;BME280;29309;42.682;23.372;2023-04-27T06:53:12;95101.88;;;12.05;42.07
43711;BME280;29309;42.682;23.372;2023-04-27T06:55:37;95099.47;;;12.30;42.02
43711;BME280;29309;42.682;23.372;2023-04-27T06:58:03;95101.13;;;12.89;41.34
43711;BME280;29309;42.682;23.372;2023-04-27T07:00:30;95094.59;;;13.55;40.50
43711;BME280;29309;42.682;23.372;2023-04-27T07:02:56;95098.00;;;14.10;39.61
43711;BME280;29309;42.682;23.372;2023-04-27T07:05:21;95095.03;;;14.67;36.74
43711;BME280;29309;42.682;23.372;2023-04-27T07:07:48;95093.78;;;14.94;37.02
43711;BME280;29309;42.682;23.372;2023-04-27T07:10:13;95089.16;;;15.03;35.92
43711;BME280;29309;42.682;23.372;2023-04-27T07:12:40;95085.59;;;15.00;34.65
43711;BME280;29309;42.682;23.372;2023-04-27T07:15:06;95094.34;;;15.12;35.26
43711;BME280;29309;42.682;23.372;2023-04-27T07:17:32;95085.53;;;15.44;34.75
43711;BME280;29309;42.682;23.372;2023-04-27T07:19:58;95092.13;;;15.78;33.93
43711;BME280;29309;42.682;23.372;2023-04-27T07:22:25;95093.56;;;16.05;34.00
43711;BME280;29309;42.682;23.372;2023-04-27T07:24:50;95090.94;;;16.39;33.11
43711;BME280;29309;42.682;23.372;2023-04-27T07:27:16;95085.16;;;16.86;33.62
43711;BME280;29309;42.682;23.372;2023-04-27T07:29:41;95080.94;;;17.47;31.03
43711;BME280;29309;42.682;23.372;2023-04-27T07:32:07;95089.78;;;17.65;30.40
43711;BME280;29309;42.682;23.372;2023-04-27T07:34:33;95082.31;;;17.46;30.87
43711;BME280;29309;42.682;23.372;2023-04-27T07:36:59;95087.66;;;17.34;30.66
43711;BME280;29309;42.682;23.372;2023-04-27T07:39:25;95086.41;;;17.09;31.40
43711;BME280;29309;42.682;23.372;2023-04-27T07:41:51;95087.97;;;17.16;32.36
43711;BME280;29309;42.682;23.372;2023-04-27T07:44:17;95090.13;;;17.17;30.75
43711;BME280;29309;42.682;23.372;2023-04-27T07:46:43;95089.34;;;17.15;31.26
43711;BME280;29309;42.682;23.372;2023-04-27T07:49:09;95090.06;;;17.15;30.91
43711;BME280;29309;42.682;23.372;2023-04-27T07:51:37;95084.22;;;17.05;33.17
43711;BME280;29309;42.682;23.372;2023-04-27T07:54:02;95084.31;;;17.09;30.70
43711;BME280;29309;42.682;23.372;2023-04-27T07:56:28;95085.69;;;17.40;30.70
43711;BME280;29309;42.682;23.372;2023-04-27T07:58:53;95087.94;;;17.78;30.10
43711;BME280;29309;42.682;23.372;2023-04-27T08:01:19;95077.94;;;18.04;29.62
43711;BME280;29309;42.682;23.372;2023-04-27T08:03:45;95064.44;;;18.35;28.52
43711;BME280;29309;42.682;23.372;2023-04-27T08:06:10;95071.16;;;18.55;28.84
43711;BME280;29309;42.682;23.372;2023-04-27T08:08:36;95076.63;;;18.47;27.97
43711;BME280;29309;42.682;23.372;2023-04-27T08:11:02;95073.63;;;18.37;28.57
43711;BME280;29309;42.682;23.372;2023-04-27T08:13:27;95084.81;;;18.33;28.47
43711;BME280;29309;42.682;23.372;2023-04-27T08:15:53;95084.16;;;18.37;28.01
43711;BME280;29309;42.682;23.372;2023-04-27T08:18:23;95077.13;;;18.38;28.05
43711;BME280;29309;42.682;23.372;2023-04-27T08:20:48;95087.34;;;18.57;28.94
43711;BME280;29309;42.682;23.372;2023-04-27T08:23:14;95076.50;;;18.81;28.70
43711;BME280;29309;42.682;23.372;2023-04-27T08:25:39;95077.50;;;19.00;27.00
43711;BME280;29309;42.682;23.372;2023-04-27T08:28:05;95074.75;;;19.04;26.98
43711;BME280;29309;42.682;23.372;2023-04-27T08:30:31;95074.91;;;19.14;27.95
43711;BME280;29309;42.682;23.372;2023-04-27T08:32:57;95074.44;;;19.28;26.92
43711;BME280;29309;42.682;23.372;2023-04-27T08:35:22;95074.22;;;19.13;27.42
43711;BME280;29309;42.682;23.372;2023-04-27T08:37:48;95070.31;;;19.37;28.10
43711;BME280;29309;42.682;23.372;2023-04-27T08:40:13;95064.38;;;19.62;26.84
43711;BME280;29309;42.682;23.372;2023-04-27T08:42:41;95065.88;;;19.70;26.80
43711;BME280;29309;42.682;23.372;2023-04-27T08:45:18;95064.41;;;19.67;28.60
43711;BME280;29309;42.682;23.372;2023-04-27T08:47:44;95082.28;;;19.85;27.70
43711;BME280;29309;42.682;23.372;2023-04-27T08:50:11;95075.09;;;19.74;29.99
43711;BME280;29309;42.682;23.372;2023-04-27T08:52:37;95073.53;;;19.63;29.53
43711;BME280;29309;42.682;23.372;2023-04-27T08:55:05;95078.69;;;19.31;29.02
43711;BME280;29309;42.682;23.372;2023-04-27T08:57:32;95076.78;;;18.99;29.99
43711;BME280;29309;42.682;23.372;2023-04-27T08:59:58;95085.56;;;18.76;30.87
43711;BME280;29309;42.682;23.372;2023-04-27T09:02:25;95079.44;;;18.47;31.09
43711;BME280;29309;42.682;23.372;2023-04-27T09:04:54;95077.09;;;18.36;30.39
43711;BME280;29309;42.682;23.372;2023-04-27T09:07:20;95074.97;;;18.34;31.10
43711;BME280;29309;42.682;23.372;2023-04-27T09:09:46;95073.91;;;18.51;30.89
43711;BME280;29309;42.682;23.372;2023-04-27T09:12:20;95074.81;;;18.64;30.32
43711;BME280;29309;42.682;23.372;2023-04-27T09:15:04;95068.78;;;18.42;30.01
43711;BME280;29309;42.682;23.372;2023-04-27T09:17:31;95065.72;;;18.28;31.65
43711;BME280;29309;42.682;23.372;2023-04-27T09:20:08;95061.03;;;18.02;30.34
43711;BME280;29309;42.682;23.372;2023-04-27T09:22:44;95071.72;;;17.74;30.60
43711;BME280;29309;42.682;23.372;2023-04-27T09:25:27;95070.28;;;17.41;31.03
43711;BME280;29309;42.682;23.372;2023-04-27T09:27:54;95065.00;;;17.23;30.78
43711;BME280;29309;42.682;23.372;2023-04-27T09:30:20;95065.25;;;17.04;30.91
43711;BME280;29309;42.682;23.372;2023-04-27T09:33:03;95058.09;;;16.67;31.56
43711;BME280;29309;42.682;23.372;2023-04-27T09:35:31;95052.88;;;16.28;32.10
43711;BME280;29309;42.682;23.372;2023-04-27T09:37:58;95060.69;;;16.05;32.97
43711;BME280;29309;42.682;23.372;2023-04-27T09:40:26;95045.69;;;16.20;33.28
43711;BME280;29309;42.682;23.372;2023-04-27T09:42:54;95050.59;;;16.50;32.71
43711;BME280;29309;42.682;23.372;2023-04-27T09:45:22;95046.50;;;16.53;32.88
43711;BME280;29309;42.682;23.372;2023-04-27T09:47:48;95040.78;;;16.49;32.41
43711;BME280;29309;42.682;23.372;2023-04-27T09:50:14;95039.34;;;16.48;31.70
43711;BME280;29309;42.682;23.372;2023-04-27T09:52:39;95041.34;;;16.43;32.15
43711;BME280;29309;42.682;23.372;2023-04-27T09:55:08;95036.84;;;16.32;31.94
43711;BME280;29309;42.682;23.372;2023-04-27T09:57:39;95038.94;;;16.32;32.15
43711;BME280;29309;42.682;23.372;2023-04-27T10:00:29;95034.53;;;16.22;31.81
43711;BME280;29309;42.682;23.372;2023-04-27T10:03:23;95038.09;;;15.99;31.55
43711;BME280;29309;42.682;23.372;2023-04-27T10:08:36;95038.63;;;15.66;32.18
43711;BME280;29309;42.682;23.372;2023-04-27T10:11:12;95030.38;;;15.48;32.46
43711;BME280;29309;42.682;23.372;2023-04-27T10:13:52;95026.50;;;15.34;32.86
43711;BME280;29309;42.682;23.372;2023-04-27T10:16:19;95037.59;;;15.32;33.11
43711;BME280;29309;42.682;23.372;2023-04-27T10:18:53;95032.00;;;15.32;33.85
43711;BME280;29309;42.682;23.372;2023-04-27T10:21:20;95045.56;;;15.41;33.26
43711;BME280;29309;42.682;23.372;2023-04-27T10:23:46;95033.78;;;15.45;33.66
43711;BME280;29309;42.682;23.372;2023-04-27T10:26:21;95032.41;;;15.46;33.07
43711;BME280;29309;42.682;23.372;2023-04-27T10:28:55;95036.84;;;15.53;33.32
43711;BME280;29309;42.682;23.372;2023-04-27T10:31:29;95026.63;;;15.63;33.64
43711;BME280;29309;42.682;23.372;2023-04-27T10:34:08;95032.22;;;15.63;32.44
43711;BME280;29309;42.682;23.372;2023-04-27T10:36:38;95031.72;;;15.69;33.04
43711;BME280;29309;42.682;23.372;2023-04-27T10:39:19;95027.47;;;15.68;32.36
43711;BME280;29309;42.682;23.372;2023-04-27T10:41:51;95023.47;;;15.75;32.52
43711;BME280;29309;42.682;23.372;2023-04-27T10:44:26;95037.56;;;15.79;32.24
43711;BME280;29309;42.682;23.372;2023-04-27T10:47:11;95034.72;;;15.77;31.88
43711;BME280;29309;42.682;23.372;2023-04-27T10:49:38;95027.59;;;15.72;31.77
43711;BME280;29309;42.682;23.372;2023-04-27T10:52:04;95028.34;;;15.74;32.36
43711;BME280;29309;42.682;23.372;2023-04-27T10:54:31;95029.78;;;15.75;32.40
43711;BME280;29309;42.682;23.372;2023-04-27T10:57:08;95026.63;;;15.63;31.15
43711;BME280;29309;42.682;23.372;2023-04-27T10:59:52;95016.72;;;15.58;31.43
43711;BME280;29309;42.682;23.372;2023-04-27T11:02:27;95031.09;;;15.72;32.81
43711;BME280;29309;42.682;23.372;2023-04-27T11:04:54;95028.34;;;15.74;33.98
43711;BME280;29309;42.682;23.372;2023-04-27T11:07:27;95017.75;;;15.71;33.84
43711;BME280;29309;42.682;23.372;2023-04-27T11:09:53;95023.84;;;15.63;34.38
43711;BME280;29309;42.682;23.372;2023-04-27T11:12:19;95024.41;;;15.58;32.99
43711;BME280;29309;42.682;23.372;2023-04-27T11:14:47;95019.78;;;15.45;34.44
43711;BME280;29309;42.682;23.372;2023-04-27T11:17:12;95020.91;;;15.34;34.75
43711;BME280;29309;42.682;23.372;2023-04-27T11:19:45;95021.50;;;15.30;34.12
43711;BME280;29309;42.682;23.372;2023-04-27T11:22:13;95030.44;;;15.26;33.38
43711;BME280;29309;42.682;23.372;2023-04-27T11:24:51;95031.59;;;15.17;34.64
43711;BME280;29309;42.682;23.372;2023-04-27T11:27:17;95027.31;;;15.14;36.18
43711;BME280;29309;42.682;23.372;2023-04-27T11:29:43;95029.69;;;15.00;35.10
43711;BME280;29309;42.682;23.372;2023-04-27T11:32:18;95037.66;;;14.86;35.10
43711;BME280;29309;42.682;23.372;2023-04-27T11:34:50;95034.78;;;14.84;34.22
43711;BME280;29309;42.682;23.372;2023-04-27T11:37:23;95031.47;;;14.90;34.94
43711;BME280;29309;42.682;23.372;2023-04-27T11:39:50;95026.81;;;14.98;35.71
43711;BME280;29309;42.682;23.372;2023-04-27T11:42:17;95025.59;;;15.03;34.82
43711;BME280;29309;42.682;23.372;2023-04-27T11:44:58;95028.56;;;15.09;34.86
43711;BME280;29309;42.682;23.372;2023-04-27T11:47:25;95025.75;;;15.09;35.48
43711;BME280;29309;42.682;23.372;2023-04-27T11:49:54;95037.63;;;15.08;35.05
43711;BME280;29309;42.682;23.372;2023-04-27T11:52:21;95036.31;;;15.11;35.56
43711;BME280;29309;42.682;23.372;2023-04-27T11:54:48;95041.94;;;15.13;34.18
43711;BME280;29309;42.682;23.372;2023-04-27T11:57:13;95034.34;;;15.15;32.84
43711;BME280;29309;42.682;23.372;2023-04-27T11:59:39;95040.63;;;15.16;32.55
43711;BME280;29309;42.682;23.372;2023-04-27T12:02:05;95034.75;;;15.06;32.29
43711;BME280;29309;42.682;23.372;2023-04-27T12:04:31;95034.56;;;15.00;32.55
43711;BME280;29309;42.682;23.372;2023-04-27T12:06:56;95038.00;;;14.98;32.75
43711;BME280;29309;42.682;23.372;2023-04-27T12:09:22;95032.88;;;14.91;32.71
43711;BME280;29309;42.682;23.372;2023-04-27T12:11:47;95048.88;;;14.88;33.12
43711;BME280;29309;42.682;23.372;2023-04-27T12:14:13;95036.13;;;14.83;32.50
43711;BME280;29309;42.682;23.372;2023-04-27T12:16:38;95048.03;;;14.84;32.49
43711;BME280;29309;42.682;23.372;2023-04-27T12:19:04;95038.13;;;14.78;32.53
43711;BME280;29309;42.682;23.372;2023-04-27T12:21:30;95047.72;;;14.73;32.44
43711;BME280;29309;42.682;23.372;2023-04-27T12:23:56;95044.22;;;14.73;33.60
43711;BME280;29309;42.682;23.372;2023-04-27T12:26:22;95051.19;;;14.72;33.06
43711;BME280;29309;42.682;23.372;2023-04-27T12:28:47;95041.38;;;14.71;32.90
43711;BME280;29309;42.682;23.372;2023-04-27T12:31:14;95049.75;;;14.71;32.82
43711;BME280;29309;42.682;23.372;2023-04-27T12:33:41;95049.28;;;14.78;32.61
43711;BME280;29309;42.682;23.372;2023-04-27T12:36:06;95037.44;;;14.80;32.43
43711;BME280;29309;42.682;23.372;2023-04-27T12:38:32;95047.41;;;14.85;32.54
43711;BME280;29309;42.682;23.372;2023-04-27T12:41:00;95043.84;;;14.83;32.13
43711;BME280;29309;42.682;23.372;2023-04-27T12:43:26;95042.22;;;14.75;32.90
43711;BME280;29309;42.682;23.372;2023-04-27T12:45:52;95054.03;;;14.74;33.00
43711;BME280;29309;42.682;23.372;2023-04-27T12:48:17;95048.91;;;14.66;32.42
43711;BME280;29309;42.682;23.372;2023-04-27T12:50:43;95044.03;;;14.67;32.68
43711;BME280;29309;42.682;23.372;2023-04-27T12:53:09;95046.78;;;14.65;33.54
43711;BME280;29309;42.682;23.372;2023-04-27T12:55:34;95043.19;;;14.62;33.47
43711;BME280;29309;42.682;23.372;2023-04-27T12:58:01;95051.88;;;14.72;33.31